Time;durP1;ratioP1;P1;durP2;ratioP2;P2;SDS_P1;SDS_P2;PMS_P1;PMS_P2;Temp;Humidity;BMP_temperature;BMP_pressure;BME280_temperature;BME280_humidity;BME280_pressure;Samples;Min_cycle;Max_cycle;Signal;HPM_P1;HPM_P2
2022/07/26 00:00:11;;;;;;;12.70;9.30;;;;;;;21.31;82.80;96808.97;5008618;28;20073;-61
2022/07/26 00:02:39;;;;;;;12.68;9.38;;;;;;;21.27;83.11;96813.94;5008725;28;20060;-60
2022/07/26 00:05:15;;;;;;;11.10;8.88;;;;;;;21.18;82.96;96816.63;5008553;28;20054;-61
2022/07/26 00:07:41;;;;;;;11.18;8.95;;;;;;;21.26;83.21;96817.19;5008330;28;20065;-65
2022/07/26 00:10:08;;;;;;;12.18;9.18;;;;;;;21.28;82.92;96809.06;4994549;28;20061;-62
2022/07/26 00:12:35;;;;;;;12.60;9.38;;;;;;;21.18;83.03;96805.34;4987316;28;20444;-61
2022/07/26 00:15:04;;;;;;;12.52;9.60;;;;;;;21.24;83.11;96809.19;4988854;28;20058;-66
2022/07/26 00:17:31;;;;;;;12.98;9.77;;;;;;;21.20;83.47;96813.34;4988829;28;20062;-64
2022/07/26 00:19:57;;;;;;;10.82;8.52;;;;;;;21.07;83.25;96816.09;4988835;28;20054;-61
2022/07/26 00:22:33;;;;;;;12.48;9.43;;;;;;;21.17;83.36;96815.03;4988550;28;20054;-62
2022/07/26 00:25:03;;;;;;;11.35;9.48;;;;;;;21.11;83.93;96808.34;4988711;28;20080;-61
2022/07/26 00:27:30;;;;;;;12.48;9.40;;;;;;;20.91;83.62;96779.53;4988531;28;20572;-61
2022/07/26 00:29:56;;;;;;;14.88;9.73;;;;;;;21.07;83.67;96799.19;4988980;28;20560;-65
2022/07/26 00:32:23;;;;;;;12.32;10.05;;;;;;;21.15;83.18;96794.94;4988770;28;20065;-63
2022/07/26 00:34:51;;;;;;;11.20;9.70;;;;;;;21.22;82.39;96800.41;4988576;28;21015;-65
2022/07/26 00:37:17;;;;;;;16.17;11.13;;;;;;;21.04;83.31;96800.09;4987065;28;20062;-60
2022/07/26 00:39:46;;;;;;;11.02;9.90;;;;;;;20.98;83.46;96797.03;4988275;28;20085;-66
2022/07/26 00:42:13;;;;;;;11.90;9.13;;;;;;;20.79;82.93;96757.72;4988457;28;20436;-60
2022/07/26 00:44:42;;;;;;;14.23;10.48;;;;;;;21.10;82.82;96798.34;4988040;28;20047;-66
2022/07/26 00:47:11;;;;;;;12.98;10.52;;;;;;;21.10;83.37;96791.91;4988321;28;20137;-65
2022/07/26 00:49:38;;;;;;;11.88;9.95;;;;;;;21.07;83.52;96804.06;4988249;28;20046;-60
2022/07/26 00:52:05;;;;;;;10.82;9.38;;;;;;;21.04;83.66;96794.47;4988080;28;20084;-65
2022/07/26 00:54:33;;;;;;;14.38;10.02;;;;;;;20.78;84.46;96779.47;4988239;28;20113;-64
2022/07/26 00:57:00;;;;;;;12.45;9.18;;;;;;;20.87;85.10;96795.72;4987514;28;20050;-61
2022/07/26 00:59:27;;;;;;;11.85;9.57;;;;;;;20.89;85.13;96793.25;4986811;28;20184;-60
2022/07/26 01:01:54;;;;;;;11.75;8.82;;;;;;;20.72;84.82;96772.78;4987531;28;20054;-62
2022/07/26 01:04:22;;;;;;;12.77;8.95;;;;;;;20.79;84.52;96797.13;4986283;28;20054;-64
2022/07/26 01:06:49;;;;;;;9.65;8.65;;;;;;;20.55;85.54;96767.66;4987708;28;20058;-65
2022/07/26 01:09:15;;;;;;;11.52;9.40;;;;;;;20.70;85.55;96791.34;4992604;28;20118;-66
2022/07/26 01:11:42;;;;;;;11.60;9.05;;;;;;;20.60;86.04;96781.97;5006997;28;20050;-61
2022/07/26 01:14:09;;;;;;;11.05;9.27;;;;;;;20.58;85.90;96783.66;5005999;28;20046;-61
2022/07/26 01:16:36;;;;;;;12.13;9.55;;;;;;;20.59;86.11;96788.03;5006716;28;20161;-61
2022/07/26 01:19:03;;;;;;;12.32;9.40;;;;;;;20.62;85.58;96773.06;5007194;28;20058;-65
2022/07/26 01:21:31;;;;;;;13.40;10.10;;;;;;;20.53;86.16;96772.91;5007226;28;20058;-60
2022/07/26 01:23:58;;;;;;;11.93;9.38;;;;;;;20.36;86.32;96755.25;5005471;28;20517;-60
2022/07/26 01:26:25;;;;;;;14.18;10.07;;;;;;;20.41;87.05;96785.69;5007035;28;20497;-60
2022/07/26 01:28:52;;;;;;;12.98;9.90;;;;;;;20.29;87.63;96777.16;5007042;28;20054;-63
2022/07/26 01:31:18;;;;;;;10.80;9.52;;;;;;;19.95;88.17;96734.59;5005496;28;20058;-64
2022/07/26 01:33:45;;;;;;;11.45;10.25;;;;;;;20.07;88.79;96759.19;5006525;28;20539;-61
2022/07/26 01:36:12;;;;;;;12.77;9.98;;;;;;;20.02;89.86;96773.78;5005334;28;20080;-60
2022/07/26 01:38:40;;;;;;;11.52;9.27;;;;;;;19.94;90.85;96767.53;5006829;28;20046;-62
2022/07/26 01:41:07;;;;;;;12.07;9.45;;;;;;;19.38;91.28;96696.59;5006701;28;20053;-65
2022/07/26 01:43:34;;;;;;;11.40;9.52;;;;;;;19.97;91.10;96765.88;5006565;28;20049;-64
2022/07/26 01:46:01;;;;;;;11.70;9.63;;;;;;;19.68;90.43;96725.63;5005111;28;20053;-60
2022/07/26 01:48:29;;;;;;;10.50;9.32;;;;;;;19.43;90.36;96681.22;5006802;28;20050;-65
2022/07/26 01:50:56;;;;;;;12.23;9.07;;;;;;;19.91;90.52;96733.88;5006424;28;20171;-60
2022/07/26 01:53:23;;;;;;;12.43;9.98;;;;;;;19.68;90.72;96703.16;5004834;28;20054;-65
2022/07/26 01:55:50;;;;;;;12.20;9.60;;;;;;;20.05;90.15;96750.41;5006297;28;20527;-60
2022/07/26 01:58:17;;;;;;;12.23;9.75;;;;;;;20.05;90.40;96753.22;5005500;28;20584;-60
2022/07/26 02:00:43;;;;;;;13.98;9.98;;;;;;;20.10;90.25;96755.50;5006545;28;20056;-60
2022/07/26 02:03:10;;;;;;;10.88;9.05;;;;;;;19.99;90.74;96757.78;5005688;28;20657;-60
2022/07/26 02:05:37;;;;;;;13.15;10.30;;;;;;;19.66;91.43;96723.25;5006371;28;20132;-61
2022/07/26 02:08:04;;;;;;;13.07;10.30;;;;;;;19.80;91.86;96758.66;5006169;28;20054;-61
2022/07/26 02:13:16;;;;;;;13.93;10.38;;;;;;;19.62;92.83;96761.09;4986483;28;20497;-63
2022/07/26 02:15:43;;;;;;;11.48;9.95;;;;;;;19.57;91.97;96737.09;4986669;28;20046;-66
2022/07/26 02:18:10;;;;;;;12.32;9.68;;;;;;;19.33;92.09;96699.91;4987092;28;20464;-65
2022/07/26 02:20:36;;;;;;;16.20;9.38;;;;;;;19.73;91.50;96750.41;4986389;28;20050;-63
2022/07/26 02:23:05;;;;;;;11.93;9.70;;;;;;;19.39;91.04;96717.81;4986699;28;20054;-62
2022/07/26 02:25:31;;;;;;;12.05;9.80;;;;;;;19.61;91.54;96742.63;4984607;28;20115;-59
2022/07/26 02:28:00;;;;;;;13.07;10.13;;;;;;;19.32;91.08;96692.72;4986080;28;20050;-61
2022/07/26 02:30:27;;;;;;;15.73;10.73;;;;;;;19.74;91.05;96749.16;4984665;28;20061;-65
2022/07/26 02:32:54;;;;;;;12.30;9.68;;;;;;;19.53;92.28;96737.19;4986145;28;20054;-64
2022/07/26 02:35:21;;;;;;;13.05;9.75;;;;;;;19.60;92.80;96755.13;4984589;28;20050;-65
2022/07/26 02:37:48;;;;;;;12.88;9.82;;;;;;;19.58;92.92;96756.31;4986235;28;20057;-61
2022/07/26 02:40:14;;;;;;;15.43;9.45;;;;;;;19.57;93.06;96758.81;4985413;28;20517;-60
2022/07/26 02:42:44;;;;;;;12.43;9.05;;;;;;;19.34;93.70;96723.19;4985948;28;20086;-60
2022/07/26 02:45:11;;;;;;;13.38;9.73;;;;;;;19.03;93.28;96666.47;4986081;28;20058;-65
2022/07/26 02:47:46;;;;;;;13.43;9.68;;;;;;;19.19;92.46;96693.81;4986026;28;20050;-61
2022/07/26 02:50:15;;;;;;;12.75;10.00;;;;;;;19.34;93.89;96740.84;4985605;28;20054;-65
2022/07/26 02:52:42;;;;;;;11.52;9.48;;;;;;;19.46;93.99;96765.44;4984471;28;20065;-60
2022/07/26 02:55:09;;;;;;;15.05;9.60;;;;;;;19.09;93.53;96690.03;4985783;28;20147;-60
2022/07/26 02:57:36;;;;;;;12.95;9.60;;;;;;;19.01;93.38;96676.56;4985403;28;20541;-65
2022/07/26 03:00:15;;;;;;;15.05;10.32;;;;;;;19.24;93.54;96713.75;4984364;28;20046;-60
2022/07/26 03:02:41;;;;;;;14.65;10.00;;;;;;;19.67;92.81;96763.38;4985848;28;20072;-59
2022/07/26 03:05:09;;;;;;;16.85;11.93;;;;;;;19.58;92.51;96764.75;4985819;28;20145;-65
2022/07/26 03:07:36;;;;;;;11.88;9.75;;;;;;;19.53;93.12;96781.34;4985834;28;20186;-60
2022/07/26 03:10:03;;;;;;;10.77;9.35;;;;;;;19.23;92.21;96714.97;4995982;28;20050;-64
2022/07/26 03:12:30;;;;;;;12.18;9.50;;;;;;;19.45;92.94;96772.31;5004957;28;20611;-60
2022/07/26 03:14:57;;;;;;;13.70;10.43;;;;;;;19.49;93.05;96764.56;5004947;28;20121;-65
2022/07/26 03:17:23;;;;;;;14.32;9.57;;;;;;;19.53;92.35;96773.72;5003676;28;20060;-67
2022/07/26 03:19:50;;;;;;;12.18;9.95;;;;;;;19.42;92.96;96763.94;5004754;28;20080;-62
2022/07/26 03:22:17;;;;;;;13.07;10.38;;;;;;;19.33;93.54;96764.53;5004836;28;20053;-62
2022/07/26 03:24:44;;;;;;;13.10;10.52;;;;;;;19.17;93.08;96730.72;5005054;28;20054;-64
2022/07/26 03:27:10;;;;;;;15.55;10.38;;;;;;;19.24;92.54;96718.56;5004919;28;20414;-60
2022/07/26 03:29:37;;;;;;;14.20;9.82;;;;;;;19.62;92.17;96773.13;5004871;28;20058;-60
2022/07/26 03:32:04;;;;;;;12.32;10.00;;;;;;;19.62;92.23;96766.72;5004637;28;20053;-60
2022/07/26 03:34:31;;;;;;;11.43;9.10;;;;;;;19.27;91.25;96700.84;5004794;28;20090;-65
2022/07/26 03:36:57;;;;;;;13.02;9.88;;;;;;;19.82;91.19;96781.50;5003423;28;20859;-67
2022/07/26 03:39:24;;;;;;;13.38;9.70;;;;;;;19.34;90.92;96693.09;5003581;28;20065;-62
2022/07/26 03:41:51;;;;;;;13.75;9.45;;;;;;;19.07;90.39;96641.94;5004372;28;20069;-62
2022/07/26 03:44:17;;;;;;;12.40;10.10;;;;;;;19.95;90.45;96768.34;5004933;28;20061;-66
2022/07/26 03:46:44;;;;;;;15.18;9.85;;;;;;;19.66;89.48;96712.00;5004835;28;20054;-62
2022/07/26 03:49:11;;;;;;;12.02;9.77;;;;;;;19.92;89.13;96757.94;5003496;28;20057;-67
2022/07/26 03:51:42;;;;;;;12.00;9.73;;;;;;;20.09;88.39;96779.25;5004730;28;20558;-66
2022/07/26 03:54:09;;;;;;;12.90;10.25;;;;;;;20.09;88.59;96784.88;5004868;28;20054;-66
2022/07/26 03:56:36;;;;;;;14.57;9.80;;;;;;;19.64;88.31;96686.34;5004827;28;20054;-61
2022/07/26 03:59:05;;;;;;;11.35;8.70;;;;;;;20.30;87.47;96768.28;5004344;28;20088;-65
2022/07/26 04:01:33;;;;;;;14.35;10.63;;;;;;;20.14;87.62;96761.88;5004482;28;20071;-64
2022/07/26 04:04:01;;;;;;;11.75;10.43;;;;;;;20.22;88.01;96766.06;5002934;28;20050;-62
2022/07/26 04:06:28;;;;;;;15.82;11.45;;;;;;;20.26;88.14;96766.78;5002426;28;20061;-62
2022/07/26 04:08:55;;;;;;;18.70;11.57;;;;;;;20.56;86.53;96775.66;5001861;28;20053;-62
2022/07/26 04:11:22;;;;;;;13.35;11.30;;;;;;;20.72;85.72;96777.63;4983358;28;20501;-66
2022/07/26 04:13:54;;;;;;;17.05;10.13;;;;;;;20.48;85.30;96719.97;4984981;28;20136;-63
2022/07/26 04:16:21;;;;;;;12.60;9.10;;;;;;;20.96;84.86;96770.53;4983547;28;20188;-66
2022/07/26 04:18:47;;;;;;;12.55;9.57;;;;;;;21.00;83.77;96748.72;4985224;28;20448;-62
2022/07/26 04:21:15;;;;;;;12.00;9.70;;;;;;;20.64;83.39;96691.81;4984875;28;20054;-63
2022/07/26 04:23:41;;;;;;;12.98;9.88;;;;;;;21.30;82.35;96759.50;4984814;28;20532;-63
2022/07/26 04:26:14;;;;;;;15.55;10.82;;;;;;;21.36;81.98;96757.72;4983422;28;20047;-63
2022/07/26 04:28:41;;;;;;;11.85;10.02;;;;;;;21.52;81.64;96757.63;4988352;28;20051;-63
2022/07/26 04:31:08;;;;;;;13.25;9.40;;;;;;;21.71;80.29;96753.81;4988461;28;20054;-61
2022/07/26 04:33:35;;;;;;;19.42;11.18;;;;;;;21.81;79.90;96752.72;4988524;28;20599;-61
2022/07/26 04:36:02;;;;;;;19.85;12.23;;;;;;;21.98;79.41;96756.22;4988088;28;20046;-63
2022/07/26 04:38:29;;;;;;;14.88;11.10;;;;;;;22.10;77.83;96742.09;4988313;28;20065;-64
2022/07/26 04:40:56;;;;;;;13.95;11.50;;;;;;;22.18;78.12;96748.28;4988251;28;20054;-61
2022/07/26 04:43:23;;;;;;;16.80;12.32;;;;;;;22.06;76.90;96696.28;4987932;28;20448;-65
2022/07/26 04:45:50;;;;;;;15.13;10.27;;;;;;;22.33;76.11;96710.69;4986605;28;20050;-65
2022/07/26 04:48:17;;;;;;;18.23;11.23;;;;;;;22.70;75.52;96742.09;4986878;28;20062;-63
2022/07/26 04:50:44;;;;;;;16.15;10.43;;;;;;;22.67;75.68;96726.84;4988067;28;20065;-65
2022/07/26 04:53:11;;;;;;;17.58;11.60;;;;;;;22.83;74.83;96742.81;4975424;28;20061;-64
2022/07/26 04:55:39;;;;;;;21.58;13.85;;;;;;;22.84;74.55;96742.38;4968320;28;20050;-64
2022/07/26 04:58:06;;;;;;;19.80;11.85;;;;;;;22.95;74.17;96739.19;4983077;28;20069;-66
2022/07/26 05:00:33;;;;;;;19.63;12.95;;;;;;;23.08;73.63;96720.13;4968263;28;20054;-64
2022/07/26 05:03:23;;;;;;;12.82;10.73;;;;;;;23.30;73.26;96743.56;4968545;28;20502;-66
2022/07/26 05:05:51;;;;;;;15.60;12.00;;;;;;;23.15;72.38;96697.25;4968508;28;20046;-61
2022/07/26 05:08:17;;;;;;;13.05;11.25;;;;;;;23.38;71.39;96706.03;4968583;28;20462;-63
2022/07/26 05:10:44;;;;;;;14.35;11.23;;;;;;;23.62;71.22;96717.63;4968850;28;20062;-62
2022/07/26 05:13:11;;;;;;;14.98;11.25;;;;;;;23.68;70.47;96695.97;4983431;28;20482;-67
2022/07/26 05:15:38;;;;;;;16.20;11.30;;;;;;;24.09;69.75;96721.00;4968302;28;20047;-60
2022/07/26 05:18:09;;;;;;;14.32;11.20;;;;;;;24.29;69.20;96732.72;4968353;28;20525;-62
2022/07/26 05:20:39;;;;;;;14.18;11.40;;;;;;;24.39;68.63;96739.94;4968349;28;20054;-64
2022/07/26 05:23:06;;;;;;;13.63;10.80;;;;;;;24.10;68.43;96665.97;4968387;28;20058;-59
2022/07/26 05:25:33;;;;;;;16.52;11.88;;;;;;;24.77;67.66;96725.41;4982614;28;20051;-65
2022/07/26 05:27:59;;;;;;;15.32;10.80;;;;;;;24.63;67.06;96692.78;4968242;28;20055;-61
2022/07/26 05:30:26;;;;;;;14.70;10.93;;;;;;;25.06;66.02;96732.19;4968028;28;20066;-59
2022/07/26 05:32:53;;;;;;;12.82;10.98;;;;;;;25.16;65.72;96722.41;4968129;28;20062;-64
2022/07/26 05:35:20;;;;;;;11.85;10.73;;;;;;;25.34;65.27;96729.34;4967753;28;20050;-65
2022/07/26 05:37:46;;;;;;;15.82;10.98;;;;;;;25.53;64.80;96725.97;4967039;28;20058;-65
2022/07/26 05:40:13;;;;;;;11.32;9.70;;;;;;;25.61;63.96;96732.13;4967359;28;20077;-59
2022/07/26 05:42:40;;;;;;;11.98;9.35;;;;;;;25.45;64.50;96723.97;4966570;28;20433;-67
2022/07/26 05:45:07;;;;;;;11.93;10.73;;;;;;;25.40;65.01;96730.28;4982089;28;20663;-62
2022/07/26 05:47:34;;;;;;;13.73;10.10;;;;;;;25.02;65.05;96706.03;4967839;28;20058;-61
2022/07/26 05:50:01;;;;;;;12.52;10.60;;;;;;;25.46;64.33;96714.97;4967761;28;20047;-59
2022/07/26 05:52:28;;;;;;;10.57;9.45;;;;;;;25.35;62.96;96669.31;4967144;28;20082;-60
2022/07/26 05:54:54;;;;;;;14.43;9.73;;;;;;;25.98;61.65;96727.88;4967138;28;20061;-63
2022/07/26 05:57:21;;;;;;;10.43;9.30;;;;;;;25.90;60.60;96692.59;4994711;28;20050;-61
2022/07/26 05:59:48;;;;;;;12.00;8.77;;;;;;;26.11;60.51;96719.97;4978529;28;20068;-58
2022/07/26 06:02:32;;;;;;;10.68;9.57;;;;;;;26.24;60.21;96721.31;4977016;28;20147;-63
2022/07/26 06:04:59;;;;;;;8.35;7.50;;;;;;;26.07;59.90;96725.03;4980938;28;20060;-62
2022/07/26 06:07:25;;;;;;;9.38;8.02;;;;;;;26.31;59.84;96714.50;4983327;28;20062;-65
2022/07/26 06:09:52;;;;;;;11.02;8.70;;;;;;;26.54;58.47;96716.56;4976611;28;20525;-59
2022/07/26 06:12:19;;;;;;;9.32;8.43;;;;;;;26.70;57.89;96699.88;4975630;28;20133;-61
2022/07/26 06:14:45;;;;;;;10.48;8.60;;;;;;;26.76;57.42;96702.88;4975702;28;20100;-64
2022/07/26 06:17:12;;;;;;;11.15;8.57;;;;;;;26.37;58.41;96704.81;4983446;28;20316;-62
2022/07/26 06:19:39;;;;;;;9.15;8.27;;;;;;;26.19;57.73;96633.16;4966361;28;20146;-66
2022/07/26 06:22:12;;;;;;;9.52;8.63;;;;;;;26.77;57.83;96675.19;4965470;28;20058;-66
2022/07/26 06:24:39;;;;;;;12.93;8.68;;;;;;;26.90;56.48;96701.31;4966550;28;20474;-65
2022/07/26 06:27:06;;;;;;;10.25;9.18;;;;;;;25.95;59.45;96691.94;4968159;28;20054;-65
2022/07/26 06:29:32;;;;;;;10.15;8.30;;;;;;;26.27;58.55;96671.28;4985221;28;20054;-60
2022/07/26 06:31:59;;;;;;;15.70;9.57;;;;;;;26.73;57.55;96692.44;4984868;28;20536;-65
2022/07/26 06:34:26;;;;;;;9.85;7.85;;;;;;;26.35;57.96;96696.00;4985660;28;20054;-63
2022/07/26 06:36:53;;;;;;;10.90;8.27;;;;;;;26.62;57.68;96695.03;4982624;28;20054;-63
2022/07/26 06:39:20;;;;;;;10.18;8.68;;;;;;;26.87;57.23;96691.72;4985276;28;20077;-67
2022/07/26 06:41:46;;;;;;;13.00;8.75;;;;;;;26.88;56.61;96642.09;4983862;28;20581;-66
2022/07/26 06:44:13;;;;;;;10.80;8.00;;;;;;;27.50;55.36;96676.91;4983890;28;20069;-66
2022/07/26 06:46:40;;;;;;;12.82;8.07;;;;;;;27.65;54.19;96677.66;4985913;28;20497;-66
2022/07/26 06:49:07;;;;;;;12.15;9.93;;;;;;;27.55;55.19;96679.03;4985929;28;20054;-66
2022/07/26 06:51:33;;;;;;;8.80;7.55;;;;;;;28.06;54.21;96685.09;4983667;28;20054;-62
2022/07/26 06:54:00;;;;;;;12.30;8.90;;;;;;;28.32;53.35;96673.03;4984391;28;20062;-63
2022/07/26 06:56:27;;;;;;;11.27;9.00;;;;;;;28.19;53.22;96633.47;4985820;28;20058;-66
2022/07/26 06:58:55;;;;;;;12.32;9.10;;;;;;;28.18;53.66;96669.72;4983938;28;20061;-66
2022/07/26 07:01:22;;;;;;;14.43;8.63;;;;;;;28.56;53.18;96665.88;4985510;28;20052;-67
2022/07/26 07:04:08;;;;;;;10.02;9.07;;;;;;;28.11;53.42;96595.28;4984969;28;20050;-68
2022/07/26 07:06:36;;;;;;;14.27;9.18;;;;;;;28.75;52.52;96654.97;4983629;28;20573;-67
2022/07/26 07:09:02;;;;;;;9.27;8.38;;;;;;;28.72;52.00;96630.31;4983979;28;20505;-66
2022/07/26 07:11:33;;;;;;;9.88;8.68;;;;;;;28.96;51.65;96630.84;5000112;28;20060;-63
2022/07/26 07:14:01;;;;;;;9.07;8.15;;;;;;;28.97;51.11;96581.84;4992606;28;20058;-67
2022/07/26 07:16:28;;;;;;;11.48;8.80;;;;;;;29.64;50.66;96651.00;4983885;28;20099;-67
2022/07/26 07:18:55;;;;;;;10.05;8.98;;;;;;;29.41;50.30;96575.78;4985472;28;20100;-67
2022/07/26 07:21:22;;;;;;;22.55;8.88;;;;;;;29.84;49.59;96631.72;4985244;28;20054;-68
2022/07/26 07:23:48;;;;;;;11.13;9.48;;;;;;;29.87;49.90;96653.56;4985240;28;20382;-67
2022/07/26 07:26:15;;;;;;;12.25;9.43;;;;;;;29.72;50.47;96650.03;5016249;28;20069;-67
2022/07/26 07:28:42;;;;;;;12.43;9.20;;;;;;;29.55;50.80;96651.94;4985439;28;20061;-64
2022/07/26 07:31:08;;;;;;;13.20;9.23;;;;;;;29.73;49.82;96648.78;4985233;28;20081;-63
2022/07/26 07:33:35;;;;;;;9.55;8.65;;;;;;;29.59;50.39;96656.13;5015787;28;20058;-68
2022/07/26 07:36:18;;;;;;;9.70;8.70;;;;;;;29.28;51.74;96652.47;4985289;28;20061;-68
2022/07/26 07:38:45;;;;;;;10.68;9.52;;;;;;;29.18;51.34;96614.00;5016537;28;20226;-68
2022/07/26 07:41:12;;;;;;;9.98;9.07;;;;;;;29.49;50.29;96594.03;4985245;28;20672;-67
2022/07/26 07:43:39;;;;;;;10.48;9.50;;;;;;;29.79;50.63;96651.66;4985497;28;20532;-62
2022/07/26 07:46:06;;;;;;;9.48;8.57;;;;;;;29.70;50.65;96637.56;5015999;28;20058;-62
2022/07/26 07:48:32;;;;;;;11.13;9.45;;;;;;;29.44;50.59;96586.97;4984889;28;20062;-61
2022/07/26 07:50:59;;;;;;;16.67;10.27;;;;;;;29.86;50.51;96649.09;5015853;28;20050;-63
2022/07/26 07:53:26;;;;;;;11.73;9.23;;;;;;;29.17;49.80;96503.97;4985018;28;20054;-67
2022/07/26 07:55:55;;;;;;;10.68;9.65;;;;;;;30.25;49.07;96624.47;4985110;28;20050;-63
2022/07/26 07:58:22;;;;;;;10.32;9.38;;;;;;;30.11;49.54;96639.69;4983764;28;20066;-64
2022/07/26 08:00:49;;;;;;;9.80;8.65;;;;;;;28.71;52.06;96583.09;5015635;28;20046;-62
2022/07/26 08:03:16;;;;;;;13.93;10.77;;;;;;;29.69;50.86;96641.72;5018804;28;20505;-67
2022/07/26 08:05:48;;;;;;;12.25;9.15;;;;;;;29.72;50.39;96635.75;4986853;28;20493;-68
2022/07/26 08:08:17;;;;;;;11.80;9.32;;;;;;;30.06;50.00;96623.28;4989229;28;20638;-62
2022/07/26 08:10:44;;;;;;;14.98;10.20;;;;;;;30.16;49.00;96623.88;4980338;28;20046;-63
2022/07/26 08:13:19;;;;;;;11.40;9.32;;;;;;;30.12;49.11;96589.81;4949717;28;20051;-68
2022/07/26 08:15:48;;;;;;;11.95;9.70;;;;;;;30.29;48.66;96633.59;4949994;28;20069;-62
2022/07/26 08:18:15;;;;;;;10.07;8.95;;;;;;;30.12;48.49;96569.81;4969304;28;20054;-67
2022/07/26 08:20:42;;;;;;;10.45;9.52;;;;;;;30.61;47.78;96632.19;4967911;28;20411;-67
2022/07/26 08:23:09;;;;;;;13.63;9.15;;;;;;;30.52;47.62;96609.56;4967072;28;20058;-61
2022/07/26 08:25:36;;;;;;;11.43;9.43;;;;;;;30.83;47.12;96623.72;4968163;28;20067;-63
2022/07/26 08:28:16;;;;;;;10.07;8.98;;;;;;;30.75;45.82;96533.94;4969699;28;20566;-61
2022/07/26 08:31:02;;;;;;;10.35;9.45;;;;;;;31.17;45.06;96626.69;4969289;28;20129;-68
2022/07/26 08:33:29;;;;;;;10.73;9.70;;;;;;;30.51;45.72;96542.19;4968485;28;20054;-63
2022/07/26 08:35:56;;;;;;;10.48;9.05;;;;;;;31.02;46.10;96608.94;4968497;28;20074;-67
2022/07/26 08:38:24;;;;;;;10.30;9.30;;;;;;;31.42;45.26;96605.66;4968883;28;20074;-64
2022/07/26 08:40:51;;;;;;;12.38;9.95;;;;;;;31.16;45.69;96580.09;4968592;28;20053;-61
2022/07/26 08:43:17;;;;;;;9.77;8.88;;;;;;;31.20;45.27;96597.00;4969085;28;20092;-62
2022/07/26 08:45:46;;;;;;;10.82;9.70;;;;;;;31.22;44.39;96577.25;4968756;28;20077;-62
2022/07/26 08:48:12;;;;;;;10.52;9.43;;;;;;;31.09;44.39;96552.00;4968599;28;20054;-67
2022/07/26 08:50:43;;;;;;;15.20;9.80;;;;;;;31.22;44.60;96582.97;4968792;28;20058;-64
2022/07/26 08:53:11;;;;;;;9.98;8.98;;;;;;;31.40;43.96;96562.44;4983900;28;20051;-68
2022/07/26 08:55:39;;;;;;;10.05;8.90;;;;;;;32.00;44.02;96570.22;4988206;28;20560;-66
2022/07/26 08:58:25;;;;;;;12.27;9.57;;;;;;;32.53;43.09;96587.03;4988267;28;20066;-62
2022/07/26 09:01:06;;;;;;;10.75;9.75;;;;;;;32.93;41.60;96577.72;4987916;28;20142;-64
2022/07/26 09:03:36;;;;;;;14.93;9.82;;;;;;;33.12;40.76;96581.53;4988031;28;20046;-63
2022/07/26 09:06:22;;;;;;;10.98;9.50;;;;;;;33.28;40.51;96579.84;4988275;28;20490;-61
2022/07/26 09:09:11;;;;;;;9.75;8.73;;;;;;;33.39;39.17;96546.13;4987803;28;20058;-67
2022/07/26 09:11:38;;;;;;;11.30;8.38;;;;;;;33.71;38.77;96570.13;5000801;28;20493;-68
2022/07/26 09:14:05;;;;;;;9.18;8.32;;;;;;;34.05;37.95;96572.72;5006959;28;20072;-63
2022/07/26 09:16:32;;;;;;;8.85;7.95;;;;;;;33.78;37.68;96585.22;5007321;28;20512;-67
2022/07/26 09:19:21;;;;;;;9.10;8.18;;;;;;;33.73;37.36;96564.59;5007141;28;20616;-65
2022/07/26 09:21:49;;;;;;;10.18;8.82;;;;;;;34.10;37.80;96569.00;5005816;28;20045;-68
2022/07/26 09:24:36;;;;;;;11.07;10.07;;;;;;;34.00;38.22;96570.66;5007115;28;20065;-67
2022/07/26 09:27:05;;;;;;;9.38;8.27;;;;;;;33.50;39.10;96579.69;5006746;28;20049;-67
2022/07/26 09:29:48;;;;;;;21.98;9.35;;;;;;;33.10;39.32;96564.03;5007211;28;20061;-61
2022/07/26 09:32:18;;;;;;;9.23;8.32;;;;;;;32.78;40.05;96550.66;5007253;28;20050;-67
2022/07/26 09:34:49;;;;;;;10.45;9.10;;;;;;;32.27;40.87;96530.00;5005402;28;20060;-66
2022/07/26 09:37:42;;;;;;;10.13;9.23;;;;;;;32.05;41.30;96564.47;5006942;28;20056;-63
2022/07/26 09:40:11;;;;;;;13.15;10.20;;;;;;;31.97;41.90;96559.81;5006709;28;20049;-67
2022/07/26 09:42:55;;;;;;;10.18;9.20;;;;;;;31.77;41.76;96548.63;5006547;28;20152;-63
2022/07/26 09:45:23;;;;;;;13.18;9.90;;;;;;;32.08;41.75;96551.19;5006677;28;20520;-63
2022/07/26 09:47:50;;;;;;;13.07;10.60;;;;;;;32.56;41.21;96550.78;5006456;28;20064;-67
2022/07/26 09:50:20;;;;;;;10.88;9.80;;;;;;;33.04;40.03;96548.94;5006348;28;20057;-68
2022/07/26 09:53:08;;;;;;;12.38;9.27;;;;;;;33.41;39.26;96534.09;5006935;28;20046;-62
2022/07/26 09:55:45;;;;;;;9.73;8.82;;;;;;;33.87;38.73;96541.75;5006589;28;20061;-68
2022/07/26 09:58:13;;;;;;;10.10;9.10;;;;;;;34.17;38.27;96536.75;5006886;28;20050;-62
2022/07/26 10:00:40;;;;;;;11.40;8.23;;;;;;;34.32;37.06;96537.13;5006572;28;20050;-63
2022/07/26 10:03:07;;;;;;;10.15;9.07;;;;;;;34.60;36.30;96540.44;5005121;28;20053;-62
2022/07/26 10:05:35;;;;;;;9.10;8.25;;;;;;;34.53;35.64;96523.78;5006367;28;20053;-67
2022/07/26 10:08:02;;;;;;;9.68;8.75;;;;;;;34.46;35.48;96524.41;5004923;28;20064;-67
2022/07/26 10:10:32;;;;;;;9.73;8.73;;;;;;;34.45;35.58;96528.59;5003042;28;20057;-63
2022/07/26 10:13:01;;;;;;;9.20;7.78;;;;;;;34.49;35.95;96526.19;4986622;28;20070;-67
2022/07/26 10:15:35;;;;;;;10.05;9.07;;;;;;;35.01;35.90;96523.66;4984873;28;20054;-66
2022/07/26 10:18:04;;;;;;;9.35;8.57;;;;;;;35.21;34.40;96517.31;4986891;28;20425;-67
2022/07/26 10:20:41;;;;;;;9.13;8.32;;;;;;;35.36;33.58;96511.88;4986280;28;20047;-62
2022/07/26 10:23:41;;;;;;;9.10;8.25;;;;;;;35.76;32.90;96516.41;4985089;28;20050;-62
2022/07/26 10:26:12;;;;;;;9.48;8.48;;;;;;;35.69;32.86;96479.59;4983874;28;20451;-67
2022/07/26 10:28:40;;;;;;;8.82;8.07;;;;;;;35.94;31.87;96501.16;4986487;28;20046;-64
2022/07/26 10:31:28;;;;;;;8.48;7.75;;;;;;;36.00;32.17;96498.94;4986079;28;20449;-67
2022/07/26 10:33:57;;;;;;;9.35;8.50;;;;;;;36.16;32.34;96494.97;4985824;28;20120;-65
2022/07/26 10:36:33;;;;;;;9.98;8.88;;;;;;;36.02;32.71;96502.06;4986066;28;20046;-63
2022/07/26 10:39:10;;;;;;;9.30;8.43;;;;;;;36.29;32.05;96492.06;4985679;28;20058;-61
2022/07/26 10:41:41;;;;;;;9.15;8.35;;;;;;;36.24;32.58;96483.53;4986009;28;20065;-62
2022/07/26 10:44:29;;;;;;;9.63;8.70;;;;;;;36.55;31.42;96485.50;4986149;28;20433;-67
2022/07/26 10:47:00;;;;;;;9.30;8.30;;;;;;;36.27;31.87;96471.66;4985747;28;20054;-66
2022/07/26 10:49:35;;;;;;;9.57;8.68;;;;;;;36.44;31.75;96498.06;4985693;28;20082;-67
2022/07/26 10:52:11;;;;;;;9.68;8.88;;;;;;;36.06;31.76;96485.19;4984242;28;20050;-62
2022/07/26 10:54:56;;;;;;;8.68;7.97;;;;;;;36.18;31.78;96486.53;4985557;28;20069;-63
2022/07/26 10:57:25;;;;;;;9.40;8.63;;;;;;;36.05;31.52;96431.72;4985688;28;20498;-66
2022/07/26 10:59:52;;;;;;;9.57;8.57;;;;;;;36.45;30.99;96467.88;4983911;28;20053;-66
2022/07/26 11:02:34;;;;;;;8.88;8.13;;;;;;;36.57;31.38;96473.41;4986041;28;20156;-68
2022/07/26 11:05:12;;;;;;;9.48;8.73;;;;;;;36.42;30.65;96425.69;4985558;28;20513;-62
2022/07/26 11:07:55;;;;;;;9.43;8.63;;;;;;;36.60;30.29;96469.41;4985273;28;20100;-63
2022/07/26 11:10:48;;;;;;;9.48;8.45;;;;;;;36.98;29.55;96465.66;4987024;28;20517;-67
2022/07/26 11:13:22;;;;;;;9.32;8.40;;;;;;;37.36;29.48;96460.28;5005539;28;20046;-67
2022/07/26 11:15:53;;;;;;;9.80;8.88;;;;;;;37.52;29.19;96454.06;5005085;28;20053;-63
2022/07/26 11:18:27;;;;;;;8.85;8.02;;;;;;;37.42;28.94;96458.00;5005652;28;20057;-63
2022/07/26 11:20:55;;;;;;;11.52;8.30;;;;;;;37.48;29.05;96456.53;5004880;28;20050;-62
2022/07/26 11:23:29;;;;;;;9.02;8.25;;;;;;;37.19;29.45;96439.66;4973382;28;20058;-65
2022/07/26 11:26:10;;;;;;;10.85;9.85;;;;;;;35.67;30.72;96424.59;4968258;28;20068;-64
2022/07/26 11:28:58;;;;;;;9.25;8.30;;;;;;;35.89;31.07;96444.38;4970919;28;20523;-63
2022/07/26 11:31:43;;;;;;;11.52;9.43;;;;;;;35.76;30.82;96441.44;4993235;28;20058;-62
2022/07/26 11:34:32;;;;;;;13.23;10.23;;;;;;;35.56;31.81;96435.53;4978789;28;20070;-62
2022/07/26 11:37:02;;;;;;;11.32;10.15;;;;;;;35.35;32.12;96397.91;4964116;28;20113;-61